Time;durP1;ratioP1;P1;durP2;ratioP2;P2;SDS_P1;SDS_P2;PMS_P1;PMS_P2;Temp;Humidity;BMP_temperature;BMP_pressure;BME280_temperature;BME280_humidity;BME280_pressure;Samples;Min_cycle;Max_cycle;Signal;HPM_P1;HPM_P2
2022/11/01 00:01:26;;;;;;;27.33;13.60;;;12.60;99.90;;;;;;4861248;29;20178;-83
2022/11/01 00:03:51;;;;;;;27.08;13.18;;;12.50;99.90;;;;;;4874918;29;20061;-84
2022/11/01 00:06:17;;;;;;;27.33;12.98;;;13.00;99.90;;;;;;4876774;29;20103;-83
2022/11/01 00:08:42;;;;;;;23.70;13.20;;;12.60;99.90;;;;;;4860544;29;20045;-84
2022/11/01 00:11:12;;;;;;;21.73;12.95;;;12.70;99.90;;;;;;4860978;29;20048;-83
2022/11/01 00:13:38;;;;;;;20.98;11.32;;;12.70;99.90;;;;;;4891608;29;20147;-84
2022/11/01 00:16:03;;;;;;;23.23;11.75;;;12.70;99.90;;;;;;4861991;29;20139;-84
2022/11/01 00:18:29;;;;;;;45.72;12.40;;;12.70;99.90;;;;;;4859224;29;20501;-84
2022/11/01 00:20:55;;;;;;;26.10;12.95;;;12.60;99.90;;;;;;4876733;29;20056;-83
2022/11/01 00:23:20;;;;;;;24.98;12.25;;;12.70;99.90;;;;;;4861295;29;20052;-84
2022/11/01 00:25:46;;;;;;;28.98;11.80;;;12.70;99.90;;;;;;4890525;29;20378;-84
2022/11/01 00:28:12;;;;;;;22.65;12.23;;;12.80;99.90;;;;;;4876289;29;20135;-84
2022/11/01 00:30:39;;;;;;;25.70;12.85;;;12.70;99.90;;;;;;4891534;29;20067;-84
2022/11/01 00:33:05;;;;;;;24.35;12.00;;;12.70;99.90;;;;;;4874795;29;20132;-84
2022/11/01 00:35:32;;;;;;;25.52;11.57;;;12.80;99.90;;;;;;4891668;29;20135;-84
2022/11/01 00:37:58;;;;;;;20.38;11.73;;;12.70;99.90;;;;;;4891566;29;20044;-84
2022/11/01 00:40:24;;;;;;;20.42;11.98;;;12.70;99.90;;;;;;4891529;29;20071;-84
2022/11/01 00:42:50;;;;;;;25.30;11.98;;;12.80;99.90;;;;;;4875231;29;20394;-84
2022/11/01 00:45:16;;;;;;;25.70;11.68;;;12.70;99.90;;;;;;4876410;29;20052;-84
2022/11/01 00:47:41;;;;;;;24.20;12.20;;;12.70;99.90;;;;;;4889662;29;20036;-84
2022/11/01 00:50:07;;;;;;;27.23;11.75;;;12.70;99.90;;;;;;4891313;29;20118;-84
2022/11/01 00:52:33;;;;;;;27.05;11.88;;;12.60;99.90;;;;;;4890687;29;20044;-84
2022/11/01 00:54:59;;;;;;;23.65;11.75;;;12.70;99.90;;;;;;4875662;29;20048;-84
2022/11/01 00:57:24;;;;;;;23.92;11.23;;;12.70;99.90;;;;;;4875865;29;20065;-84
2022/11/01 00:59:50;;;;;;;22.00;11.50;;;12.60;99.90;;;;;;4859409;29;20115;-84
2022/11/01 01:02:16;;;;;;;21.65;11.45;;;12.70;99.90;;;;;;4860346;29;20053;-84
2022/11/01 01:04:42;;;;;;;30.50;11.80;;;12.70;99.90;;;;;;4875186;29;20052;-84
2022/11/01 01:07:08;;;;;;;21.52;10.38;;;12.70;99.90;;;;;;4859627;29;20044;-84
2022/11/01 01:09:34;;;;;;;23.42;10.65;;;12.80;99.90;;;;;;4875649;29;20596;-84
2022/11/01 01:12:00;;;;;;;28.10;11.60;;;12.80;99.90;;;;;;4860410;29;20051;-84
2022/11/01 01:14:27;;;;;;;19.58;11.30;;;12.80;99.90;;;;;;4875225;29;20048;-84
2022/11/01 01:16:53;;;;;;;23.95;11.07;;;12.80;99.90;;;;;;4890867;29;20139;-84
2022/11/01 01:19:19;;;;;;;20.92;11.13;;;13.10;99.90;;;;;;4874939;29;20068;-84
2022/11/01 01:21:44;;;;;;;19.73;10.48;;;12.80;99.90;;;;;;4859131;29;20341;-84
2022/11/01 01:24:10;;;;;;;21.63;11.05;;;12.80;99.90;;;;;;4875813;29;20100;-84
2022/11/01 01:26:36;;;;;;;23.38;10.35;;;12.90;99.90;;;;;;4860007;29;20513;-84
2022/11/01 01:29:02;;;;;;;22.30;9.85;;;12.90;99.90;;;;;;4874478;29;20119;-84
2022/11/01 01:31:28;;;;;;;21.92;10.38;;;12.90;99.90;;;;;;4890722;29;20045;-84
2022/11/01 01:33:55;;;;;;;26.40;10.30;;;12.90;99.90;;;;;;4859621;29;20040;-84
2022/11/01 01:36:21;;;;;;;23.10;9.38;;;12.90;99.90;;;;;;4874924;29;20040;-84
2022/11/01 01:38:46;;;;;;;17.02;9.65;;;13.00;99.90;;;;;;4875272;29;20504;-84
2022/11/01 01:43:56;;;;;;;19.50;9.50;;;13.20;99.90;;;;;;4874375;29;20052;-84
2022/11/01 01:46:22;;;;;;;22.65;9.77;;;13.00;99.90;;;;;;4859935;29;20100;-83
2022/11/01 01:48:53;;;;;;;23.85;10.25;;;13.10;99.90;;;;;;4858098;29;20048;-84
2022/11/01 01:51:23;;;;;;;21.30;9.52;;;12.90;99.90;;;;;;4860251;29;20056;-84
2022/11/01 01:53:52;;;;;;;19.40;9.70;;;13.00;99.90;;;;;;4859642;29;20130;-84
2022/11/01 01:56:23;;;;;;;22.27;10.10;;;13.00;99.90;;;;;;4859446;29;20057;-84
2022/11/01 01:58:55;;;;;;;20.80;9.35;;;13.10;99.90;;;;;;4859393;29;20511;-84
2022/11/01 02:01:21;;;;;;;19.85;10.18;;;13.00;99.90;;;;;;4861136;29;20067;-84
2022/11/01 02:03:47;;;;;;;23.10;9.50;;;13.00;99.90;;;;;;4861744;29;20049;-84
2022/11/01 02:06:16;;;;;;;22.08;10.00;;;13.00;99.90;;;;;;4894674;29;20048;-84
2022/11/01 02:08:45;;;;;;;19.35;9.00;;;13.10;99.90;;;;;;4862961;29;20048;-84
2022/11/01 02:11:12;;;;;;;18.70;8.98;;;13.10;99.90;;;;;;4862807;29;20053;-84
2022/11/01 02:13:38;;;;;;;20.70;9.55;;;13.00;99.90;;;;;;4863186;29;20052;-84
2022/11/01 02:16:22;;;;;;;23.35;9.10;;;13.10;99.90;;;;;;4863110;29;20353;-84
2022/11/01 02:18:55;;;;;;;24.13;8.80;;;13.10;99.90;;;;;;4860968;29;20079;-84
2022/11/01 02:21:35;;;;;;;16.88;9.27;;;13.10;99.90;;;;;;4878501;29;20052;-84
2022/11/01 02:24:16;;;;;;;18.77;8.52;;;13.10;99.90;;;;;;4862187;29;20056;-84
2022/11/01 02:26:46;;;;;;;16.08;8.80;;;13.10;99.90;;;;;;4862852;29;20044;-84
2022/11/01 02:29:43;;;;;;;21.63;9.05;;;13.10;99.90;;;;;;4863280;29;20060;-84
2022/11/01 02:32:35;;;;;;;23.90;8.75;;;13.10;99.90;;;;;;4862134;29;20055;-84
2022/11/01 02:35:20;;;;;;;16.13;7.85;;;13.10;99.90;;;;;;4878004;29;20525;-83
2022/11/01 02:38:00;;;;;;;17.17;8.57;;;13.20;99.90;;;;;;4862181;29;20056;-84
2022/11/01 02:40:30;;;;;;;16.00;8.70;;;13.20;99.90;;;;;;4862894;29;21260;-84
2022/11/01 02:43:02;;;;;;;19.40;9.07;;;13.20;99.90;;;;;;4878246;29;20549;-84
2022/11/01 02:45:37;;;;;;;15.32;7.22;;;13.20;99.90;;;;;;4862123;29;20045;-84
2022/11/01 02:48:03;;;;;;;21.27;8.35;;;13.20;99.90;;;;;;4876848;29;20044;-85
2022/11/01 02:50:37;;;;;;;21.38;7.90;;;13.20;99.90;;;;;;4862834;29;20060;-83
2022/11/01 02:53:03;;;;;;;22.52;8.45;;;13.30;99.90;;;;;;4861625;29;20273;-84
2022/11/01 02:55:29;;;;;;;20.85;8.38;;;13.20;99.90;;;;;;4878163;29;20508;-84
2022/11/01 02:58:03;;;;;;;19.05;8.55;;;13.20;99.90;;;;;;4861783;29;20060;-84
2022/11/01 03:00:32;;;;;;;21.48;8.00;;;13.20;99.90;;;;;;4877166;29;20060;-84
2022/11/01 03:03:05;;;;;;;18.80;9.07;;;13.30;99.90;;;;;;4861469;29;20044;-84
2022/11/01 03:05:55;;;;;;;21.98;8.55;;;13.30;99.90;;;;;;4861936;29;20083;-84
2022/11/01 03:08:26;;;;;;;19.60;8.25;;;13.30;99.90;;;;;;4877189;29;20041;-84
2022/11/01 03:11:02;;;;;;;27.98;8.63;;;13.30;99.90;;;;;;4892779;29;20063;-83
2022/11/01 03:13:56;;;;;;;14.02;7.47;;;13.50;99.90;;;;;;4861262;29;20044;-84
2022/11/01 03:16:23;;;;;;;16.50;8.15;;;13.30;99.90;;;;;;4862383;29;20182;-83
2022/11/01 03:19:03;;;;;;;18.85;7.75;;;13.30;99.90;;;;;;4861289;29;20057;-84
2022/11/01 03:21:35;;;;;;;21.88;7.80;;;13.30;99.90;;;;;;4877252;29;20151;-84
2022/11/01 03:24:13;;;;;;;18.52;7.85;;;13.40;99.90;;;;;;4861412;29;20041;-84
2022/11/01 03:26:41;;;;;;;18.55;7.43;;;13.40;99.90;;;;;;4877083;29;20096;-84
2022/11/01 03:29:09;;;;;;;24.30;8.50;;;13.40;99.90;;;;;;4861725;29;20505;-84
2022/11/01 03:31:38;;;;;;;16.70;7.13;;;13.50;99.90;;;;;;4861996;29;20059;-84
2022/11/01 03:34:11;;;;;;;18.42;7.13;;;13.60;99.90;;;;;;4861104;29;20041;-84
2022/11/01 03:36:42;;;;;;;16.80;7.28;;;13.50;99.90;;;;;;4861359;29;20045;-84
2022/11/01 03:39:17;;;;;;;15.27;7.13;;;13.60;99.90;;;;;;4861819;29;20079;-84
2022/11/01 03:41:46;;;;;;;19.13;7.47;;;13.60;99.90;;;;;;4861037;29;20057;-84
2022/11/01 03:44:13;;;;;;;16.75;6.82;;;13.60;99.90;;;;;;4861691;29;20477;-84
2022/11/01 03:46:40;;;;;;;15.65;7.15;;;13.70;99.90;;;;;;4876824;29;20056;-84
2022/11/01 03:49:05;;;;;;;20.70;7.57;;;13.70;99.90;;;;;;4876053;29;20100;-84
2022/11/01 03:51:31;;;;;;;13.80;7.07;;;13.70;99.90;;;;;;4861754;29;20084;-84
2022/11/01 03:53:57;;;;;;;21.60;7.15;;;13.70;99.90;;;;;;4877499;29;20181;-84
2022/11/01 03:56:23;;;;;;;14.38;6.55;;;13.70;99.90;;;;;;4861094;29;20104;-85
2022/11/01 03:58:48;;;;;;;16.38;6.78;;;13.70;99.90;;;;;;4877067;29;20056;-84
2022/11/01 04:01:16;;;;;;;16.55;6.40;;;13.80;99.90;;;;;;4861834;29;20059;-84
2022/11/01 04:03:43;;;;;;;20.05;6.72;;;13.70;99.90;;;;;;4859703;29;20052;-84
2022/11/01 04:06:09;;;;;;;11.95;6.30;;;13.70;99.90;;;;;;4862268;29;20398;-84
2022/11/01 04:08:36;;;;;;;18.88;7.03;;;13.70;99.90;;;;;;4861128;29;20053;-84
2022/11/01 04:11:03;;;;;;;16.83;6.25;;;13.70;99.90;;;;;;4861050;29;20045;-84
2022/11/01 04:13:28;;;;;;;18.75;6.43;;;13.70;99.90;;;;;;4891901;29;20131;-84
2022/11/01 04:21:25;;;;;;;15.85;6.30;;;13.70;99.90;;;;;;4877046;29;20139;-84
2022/11/01 04:23:51;;;;;;;17.27;6.20;;;13.70;99.90;;;;;;4859361;29;20048;-84
2022/11/01 04:26:20;;;;;;;14.02;6.18;;;13.70;99.90;;;;;;4861619;29;20048;-84
2022/11/01 04:28:55;;;;;;;14.32;5.78;;;13.70;99.90;;;;;;4875819;29;20056;-84
2022/11/01 04:31:24;;;;;;;17.85;6.45;;;14.10;99.90;;;;;;4891561;29;20489;-84
2022/11/01 04:33:50;;;;;;;13.60;5.68;;;13.80;99.90;;;;;;4874824;29;20056;-84
2022/11/01 04:36:16;;;;;;;12.57;5.93;;;13.80;99.90;;;;;;4876748;29;20049;-84
2022/11/01 04:38:41;;;;;;;18.55;5.82;;;13.80;99.90;;;;;;4874605;29;20347;-84
2022/11/01 04:41:07;;;;;;;13.93;5.65;;;14.10;99.90;;;;;;4876593;29;20135;-84
2022/11/01 04:43:32;;;;;;;18.55;6.28;;;13.90;99.90;;;;;;4876927;29;20054;-84
2022/11/01 04:45:58;;;;;;;15.80;5.63;;;14.10;99.90;;;;;;4860119;29;20064;-84
2022/11/01 04:48:25;;;;;;;9.20;5.13;;;13.90;99.90;;;;;;4876091;29;20401;-84
2022/11/01 04:50:50;;;;;;;19.08;5.32;;;13.90;99.90;;;;;;4860468;29;20125;-84
2022/11/01 04:53:16;;;;;;;15.52;5.10;;;14.00;99.90;;;;;;4875649;29;20131;-84
2022/11/01 04:55:42;;;;;;;17.13;5.18;;;13.90;99.90;;;;;;4876068;29;20053;-84
2022/11/01 04:58:09;;;;;;;16.88;5.18;;;14.00;99.90;;;;;;4860591;29;20127;-84
2022/11/01 05:00:35;;;;;;;14.90;4.95;;;14.00;99.90;;;;;;4875294;29;20072;-84
2022/11/01 05:03:04;;;;;;;13.15;5.15;;;14.10;99.90;;;;;;4859476;29;20056;-84
2022/11/01 05:05:30;;;;;;;19.70;5.78;;;14.10;99.90;;;;;;4860975;29;20111;-84
2022/11/01 05:08:02;;;;;;;13.05;5.05;;;14.10;99.90;;;;;;4859312;29;20525;-86
2022/11/01 05:10:28;;;;;;;14.52;5.60;;;14.10;99.90;;;;;;4875978;29;20400;-84
2022/11/01 05:12:53;;;;;;;13.45;5.30;;;14.10;99.90;;;;;;4890284;29;20130;-85
2022/11/01 05:15:19;;;;;;;12.32;4.55;;;14.10;99.90;;;;;;4879632;29;20131;-84
2022/11/01 05:17:46;;;;;;;10.35;4.72;;;14.10;99.90;;;;;;4878631;29;20509;-84
2022/11/01 05:20:11;;;;;;;11.65;4.40;;;14.20;99.90;;;;;;4878394;29;20055;-83
2022/11/01 05:22:37;;;;;;;8.68;4.30;;;14.30;99.90;;;;;;4878859;29;20052;-84
2022/11/01 05:25:03;;;;;;;14.25;4.85;;;14.30;99.90;;;;;;4894640;29;20076;-84
2022/11/01 05:27:29;;;;;;;13.45;4.30;;;14.40;99.90;;;;;;4893474;29;20517;-84
2022/11/01 05:29:55;;;;;;;12.52;4.70;;;14.40;99.90;;;;;;4879024;29;20094;-84
2022/11/01 05:32:20;;;;;;;9.10;3.90;;;14.50;99.90;;;;;;4893716;29;20052;-84
2022/11/01 05:34:48;;;;;;;13.65;4.03;;;14.60;99.90;;;;;;4877894;29;20048;-85
2022/11/01 05:37:14;;;;;;;11.40;4.00;;;14.60;99.90;;;;;;4881440;29;20055;-84
2022/11/01 05:39:40;;;;;;;12.32;4.07;;;14.70;99.90;;;;;;4881928;29;20052;-84
2022/11/01 05:42:06;;;;;;;14.40;4.18;;;14.70;99.90;;;;;;4897655;29;20099;-84
2022/11/01 05:44:32;;;;;;;12.75;4.55;;;14.80;99.90;;;;;;4881887;29;20059;-84
2022/11/01 05:46:57;;;;;;;16.05;4.82;;;14.80;99.90;;;;;;4879114;29;20112;-84
2022/11/01 05:49:23;;;;;;;12.27;3.92;;;14.80;99.90;;;;;;4877506;29;20059;-84
2022/11/01 05:51:49;;;;;;;8.93;3.92;;;14.80;99.90;;;;;;4879228;29;20383;-84
2022/11/01 05:54:15;;;;;;;11.73;3.42;;;14.80;99.90;;;;;;4894809;29;20415;-84
2022/11/01 05:56:41;;;;;;;10.48;3.22;;;14.90;99.90;;;;;;4893277;29;20048;-84
2022/11/01 05:59:06;;;;;;;10.18;2.70;;;14.80;99.90;;;;;;4863682;29;20045;-84
2022/11/01 06:01:32;;;;;;;9.95;2.35;;;14.80;99.90;;;;;;4894049;29;20083;-85
2022/11/01 06:04:00;;;;;;;6.88;1.75;;;14.70;99.90;;;;;;4861923;29;20048;-84
2022/11/01 06:06:28;;;;;;;6.05;1.65;;;14.70;99.90;;;;;;4879189;29;20487;-84
2022/11/01 06:08:56;;;;;;;8.60;1.60;;;14.70;99.90;;;;;;4878310;29;20139;-84
2022/11/01 06:11:23;;;;;;;7.10;2.05;;;14.70;99.90;;;;;;4894807;29;20409;-83
2022/11/01 06:13:54;;;;;;;5.75;1.02;;;14.50;99.90;;;;;;4878104;29;20139;-84
2022/11/01 06:16:19;;;;;;;6.93;1.13;;;14.40;99.90;;;;;;4862679;29;20048;-84
2022/11/01 06:18:45;;;;;;;5.38;1.00;;;14.40;99.90;;;;;;4892553;29;20045;-83
2022/11/01 06:21:11;;;;;;;4.70;1.00;;;14.30;99.90;;;;;;4878878;29;20192;-83
2022/11/01 06:23:36;;;;;;;9.77;1.60;;;14.20;99.90;;;;;;4892769;29;20053;-84
2022/11/01 06:26:04;;;;;;;8.57;1.17;;;14.20;99.90;;;;;;4878640;29;20103;-83
2022/11/01 06:28:30;;;;;;;4.28;0.82;;;14.20;99.90;;;;;;4878443;29;20553;-83
2022/11/01 06:31:00;;;;;;;7.05;0.88;;;14.10;99.90;;;;;;4877530;29;20048;-84
2022/11/01 06:33:27;;;;;;;4.10;0.90;;;14.00;99.90;;;;;;4893279;29;20095;-84
2022/11/01 06:35:52;;;;;;;8.52;0.93;;;14.00;99.90;;;;;;4877595;29;20049;-83
2022/11/01 06:38:18;;;;;;;9.70;1.00;;;14.00;99.90;;;;;;4862195;29;20047;-83
2022/11/01 06:40:46;;;;;;;3.88;0.65;;;13.90;99.90;;;;;;4862242;29;20452;-84
2022/11/01 06:43:11;;;;;;;8.00;0.98;;;13.90;99.90;;;;;;4872269;29;20055;-83
2022/11/01 06:45:37;;;;;;;4.18;0.70;;;13.80;99.90;;;;;;4879536;29;20047;-82
2022/11/01 06:48:03;;;;;;;3.97;0.65;;;13.80;99.90;;;;;;4878807;29;20044;-83
2022/11/01 06:50:29;;;;;;;7.60;1.15;;;13.80;99.90;;;;;;4895429;29;20424;-82
2022/11/01 06:52:57;;;;;;;7.78;1.00;;;13.70;99.90;;;;;;4878609;29;20055;-83
2022/11/01 06:55:24;;;;;;;5.72;0.68;;;13.60;99.90;;;;;;4896008;29;20048;-82
2022/11/01 06:58:02;;;;;;;11.20;1.05;;;13.60;99.90;;;;;;4879141;29;20131;-83
2022/11/01 07:00:28;;;;;;;6.88;1.30;;;13.60;99.90;;;;;;4882853;29;20056;-83
2022/11/01 07:02:59;;;;;;;16.30;1.42;;;13.50;99.90;;;;;;4899422;29;20501;-82
2022/11/01 07:05:26;;;;;;;10.35;1.17;;;13.50;99.90;;;;;;4886586;29;20107;-82
2022/11/01 07:07:53;;;;;;;10.23;1.38;;;13.50;99.90;;;;;;4895852;29;20044;-82
2022/11/01 07:10:19;;;;;;;11.40;1.50;;;13.70;99.90;;;;;;4881078;29;20052;-81
2022/11/01 07:12:44;;;;;;;5.93;1.10;;;13.40;99.90;;;;;;4860391;29;20089;-82
2022/11/01 07:15:10;;;;;;;9.52;1.40;;;13.40;99.90;;;;;;4878494;29;20044;-82
2022/11/01 07:17:36;;;;;;;7.72;1.13;;;13.40;99.90;;;;;;4895076;29;20052;-82
2022/11/01 07:20:01;;;;;;;10.30;1.38;;;13.40;99.90;;;;;;4895274;29;20051;-82
2022/11/01 07:22:27;;;;;;;9.82;1.80;;;13.30;99.90;;;;;;4896259;29;20103;-82
2022/11/01 07:24:53;;;;;;;8.30;1.25;;;13.30;99.90;;;;;;4880303;29;20115;-82
2022/11/01 07:27:18;;;;;;;7.20;1.23;;;13.30;99.90;;;;;;4895667;29;20523;-83
2022/11/01 07:29:44;;;;;;;10.57;1.48;;;13.30;99.90;;;;;;4896122;29;20533;-83
2022/11/01 07:32:10;;;;;;;7.93;1.48;;;13.30;99.90;;;;;;4886611;29;20048;-83
2022/11/01 07:34:35;;;;;;;9.30;1.30;;;13.30;99.90;;;;;;4884366;29;20493;-83
2022/11/01 07:37:01;;;;;;;15.77;1.65;;;13.40;99.90;;;;;;4864776;29;20047;-83
2022/11/01 07:39:27;;;;;;;9.30;1.55;;;13.50;99.90;;;;;;4861801;29;20052;-83
2022/11/01 07:41:53;;;;;;;16.00;1.70;;;13.50;99.90;;;;;;4869383;29;20044;-83
2022/11/01 07:44:19;;;;;;;15.70;2.38;;;13.50;99.90;;;;;;4879810;29;20056;-82
2022/11/01 07:46:45;;;;;;;19.73;2.28;;;13.50;99.90;;;;;;4872850;29;20159;-83
2022/11/01 07:49:10;;;;;;;7.38;1.38;;;13.50;99.90;;;;;;4841496;29;20136;-83
2022/11/01 07:51:36;;;;;;;11.10;1.55;;;13.50;99.90;;;;;;4858858;29;20109;-86
2022/11/01 07:54:02;;;;;;;15.40;1.65;;;13.50;99.90;;;;;;4843780;29;20485;-86
2022/11/01 07:56:28;;;;;;;12.88;1.80;;;13.50;99.90;;;;;;4842943;29;20041;-86
2022/11/01 07:58:57;;;;;;;14.70;2.38;;;13.50;99.90;;;;;;4842533;29;20068;-86
2022/11/01 08:01:22;;;;;;;11.20;1.77;;;13.50;99.90;;;;;;4859308;29;20063;-86
2022/11/01 08:03:48;;;;;;;16.77;2.80;;;13.50;99.90;;;;;;4860346;29;20468;-86
2022/11/01 08:06:32;;;;;;;18.70;2.05;;;13.70;99.90;;;;;;4862202;29;20131;-85
2022/11/01 08:08:57;;;;;;;11.48;1.98;;;13.90;99.90;;;;;;4860616;29;20219;-85
2022/11/01 08:11:23;;;;;;;12.48;1.92;;;13.90;99.90;;;;;;4861986;29;20092;-85
2022/11/01 08:14:24;;;;;;;;;;;;;;;;;;;;;
2022/11/01 08:21:18;;;;;;;;;;;;;;;;;;;;;
2022/11/01 08:24:33;;;;;;;13.85;2.20;;;14.00;99.90;;;;;;4876629;29;20490;-86
2022/11/01 08:27:05;;;;;;;10.02;2.42;;;14.00;99.90;;;;;;4860990;29;20092;-86
2022/11/01 08:30:02;;;;;;;13.30;1.70;;;14.10;99.90;;;;;;4861718;29;20879;-85
2022/11/01 08:35:19;;;;;;;15.38;2.38;;;14.20;99.90;;;;;;4875787;29;20060;-84
2022/11/01 08:37:52;;;;;;;9.63;1.90;;;14.30;99.90;;;;;;4875842;29;20059;-85
2022/11/01 08:40:27;;;;;;;12.57;1.90;;;14.40;99.90;;;;;;4892627;29;20055;-85
2022/11/01 08:42:56;;;;;;;15.68;2.38;;;14.30;99.90;;;;;;4876798;29;20057;-85
2022/11/01 08:46:11;;;;;;;;;;;;;;;;;;;;;
2022/11/01 08:49:00;;;;;;;25.40;2.38;;;14.20;99.90;;;;;;4862652;29;20441;-85
2022/11/01 08:51:31;;;;;;;30.15;3.83;;;14.20;99.90;;;;;;4860921;29;20040;-84
2022/11/01 08:54:01;;;;;;;20.65;2.90;;;14.20;99.90;;;;;;4860060;29;20084;-85
2022/11/01 08:56:55;;;;;;;23.55;2.92;;;13.90;99.90;;;;;;4876844;29;20048;-85
2022/11/01 08:59:25;;;;;;;18.85;2.70;;;14.00;99.90;;;;;;4876071;29;20052;-85
2022/11/01 09:02:14;;;;;;;21.52;3.30;;;14.10;99.90;;;;;;4859724;29;20053;-85
2022/11/01 09:04:40;;;;;;;25.30;3.42;;;14.10;99.90;;;;;;4849968;29;20322;-85
2022/11/01 09:07:36;;;;;;;;;;;;;;;;;;;;;
2022/11/01 09:10:25;;;;;;;20.15;2.72;;;14.00;99.90;;;;;;4865892;29;20052;-85
2022/11/01 09:15:46;;;;;;;21.63;3.33;;;14.20;99.90;;;;;;4866339;29;20143;-84
2022/11/01 09:18:18;;;;;;;23.90;3.53;;;14.30;99.90;;;;;;4875980;29;20044;-85
2022/11/01 09:20:43;;;;;;;19.83;3.03;;;14.40;99.90;;;;;;4875954;29;20052;-85
2022/11/01 09:24:31;;;;;;;18.35;2.63;;;14.40;99.90;;;;;;4860716;29;20052;-86
2022/11/01 09:26:51;;;;;;;19.10;3.05;;;14.30;99.90;;;;;;4855377;29;20055;-85
2022/11/01 09:29:17;;;;;;;32.33;3.67;;;14.60;99.90;;;;;;4876409;29;20091;-84
2022/11/01 09:35:09;;;;;;;17.15;3.40;;;14.60;99.90;;;;;;4877050;29;20175;-85
2022/11/01 09:37:40;;;;;;;23.30;3.42;;;14.80;99.90;;;;;;4876043;29;20085;-85
2022/11/01 09:40:36;;;;;;;28.42;3.88;;;14.90;99.90;;;;;;4875946;29;20449;-85
2022/11/01 09:43:05;;;;;;;19.10;3.20;;;14.80;99.90;;;;;;4857848;29;20537;-85
2022/11/01 09:45:54;;;;;;;26.67;3.30;;;14.80;99.90;;;;;;4860917;29;20120;-84
2022/11/01 09:48:27;;;;;;;25.52;3.10;;;14.80;99.90;;;;;;4874687;29;20560;-85
2022/11/01 09:54:46;;;;;;;19.60;3.55;;;14.90;99.90;;;;;;4810274;29;20152;-85
2022/11/01 09:58:33;;;;;;;24.60;3.95;;;14.70;99.90;;;;;;4893191;29;20049;-84
2022/11/01 10:01:14;;;;;;;37.63;3.03;;;15.10;99.90;;;;;;4871366;29;20068;-84
2022/11/01 10:04:13;;;;;;;20.65;3.53;;;15.10;99.90;;;;;;4875792;29;20045;-85
2022/11/01 10:07:01;;;;;;;13.25;2.67;;;15.10;99.90;;;;;;4860518;29;20139;-85
2022/11/01 10:10:08;;;;;;;29.70;3.20;;;15.00;99.90;;;;;;4874825;29;20495;-85
2022/11/01 10:13:05;;;;;;;24.42;3.90;;;15.00;99.90;;;;;;4876378;29;20075;-85
2022/11/01 10:15:38;;;;;;;23.60;3.13;;;15.00;99.90;;;;;;4875089;29;20063;-85
2022/11/01 10:18:36;;;;;;;25.85;3.50;;;15.10;99.90;;;;;;4860439;29;20556;-85
2022/11/01 10:21:14;;;;;;;18.42;2.88;;;15.20;99.90;;;;;;4876950;29;20123;-85
2022/11/01 10:24:06;;;;;;;17.73;3.08;;;15.30;99.90;;;;;;4881559;29;20051;-85
2022/11/01 10:26:47;;;;;;;19.75;3.65;;;15.40;99.90;;;;;;4864013;29;20037;-85
2022/11/01 10:29:42;;;;;;;19.95;3.17;;;15.40;99.90;;;;;;4880002;29;20056;-86
2022/11/01 10:32:42;;;;;;;27.65;4.40;;;15.40;99.90;;;;;;4850570;29;20089;-86
2022/11/01 10:36:11;;;;;;;19.40;2.88;;;15.30;99.90;;;;;;4881475;29;20103;-86
2022/11/01 10:39:17;;;;;;;;;;;;;;;;;;;;;
2022/11/01 10:42:25;;;;;;;;;;;;;;;;;;;;;
2022/11/01 10:45:09;;;;;;;23.17;4.05;;;15.20;99.90;;;;;;4879742;29;20143;-85
2022/11/01 10:47:42;;;;;;;27.13;3.95;;;15.20;99.90;;;;;;4863183;29;20149;-85
2022/11/01 10:50:24;;;;;;;22.47;3.70;;;15.20;99.90;;;;;;4882489;29;20100;-85
2022/11/01 10:53:06;;;;;;;30.05;3.60;;;15.20;99.90;;;;;;4862930;29;20325;-86
2022/11/01 10:55:37;;;;;;;24.20;3.42;;;15.20;99.90;;;;;;4862792;29;20091;-86
2022/11/01 10:58:31;;;;;;;18.50;2.88;;;15.20;99.90;;;;;;4862445;29;20049;-85
2022/11/01 11:01:05;;;;;;;20.13;3.22;;;15.20;99.90;;;;;;4832824;29;20065;-86
2022/11/01 11:03:30;;;;;;;;;;;15.10;99.90;;;;;;4879811;29;20060;-85
2022/11/01 11:06:04;;;;;;;14.60;2.80;;;15.10;99.90;;;;;;4863572;29;19969;-85
2022/11/01 11:08:32;;;;;;;22.35;3.20;;;15.10;99.90;;;;;;4863523;29;20128;-85
2022/11/01 11:11:06;;;;;;;23.38;3.55;;;14.70;99.90;;;;;;4878822;29;20445;-85
2022/11/01 11:13:37;;;;;;;22.70;3.38;;;15.00;99.90;;;;;;4893359;29;20170;-85
2022/11/01 11:16:04;;;;;;;17.73;2.80;;;14.90;99.90;;;;;;4879871;29;20665;-85
2022/11/01 11:18:35;;;;;;;20.70;3.58;;;14.90;99.90;;;;;;4878017;29;20131;-85
2022/11/01 11:21:07;;;;;;;16.70;3.20;;;14.80;99.90;;;;;;4879181;29;20131;-85
2022/11/01 11:23:39;;;;;;;23.83;3.33;;;14.60;99.90;;;;;;4878439;29;20073;-85
2022/11/01 11:26:25;;;;;;;21.92;3.20;;;14.90;99.90;;;;;;4894742;29;20568;-86
2022/11/01 11:29:02;;;;;;;22.27;2.90;;;15.00;99.90;;;;;;4894142;29;20112;-85
2022/11/01 11:31:35;;;;;;;27.55;2.92;;;14.70;99.90;;;;;;4879098;29;20059;-85
2022/11/01 11:34:38;;;;;;;20.15;2.80;;;15.00;99.90;;;;;;4877773;29;20389;-86
2022/11/01 11:37:06;;;;;;;15.45;2.65;;;14.90;99.90;;;;;;4879291;29;20120;-86
2022/11/01 11:39:35;;;;;;;18.65;3.58;;;15.00;99.90;;;;;;4877855;29;20045;-85
2022/11/01 11:42:10;;;;;;;20.58;3.33;;;15.00;99.90;;;;;;4877983;29;20056;-84
2022/11/01 11:44:50;;;;;;;18.17;3.13;;;15.10;99.90;;;;;;4863233;29;20044;-85
2022/11/01 11:47:28;;;;;;;24.10;3.53;;;15.10;99.90;;;;;;4862489;29;20052;-86
2022/11/01 11:50:20;;;;;;;23.75;3.67;;;15.10;99.90;;;;;;4863124;29;20044;-85
2022/11/01 11:53:15;;;;;;;18.42;3.38;;;15.10;99.90;;;;;;4891793;29;20045;-85
2022/11/01 11:55:47;;;;;;;18.70;3.42;;;15.10;99.90;;;;;;4876590;29;20533;-85
2022/11/01 11:58:34;;;;;;;18.40;2.85;;;15.00;99.90;;;;;;4877396;29;20036;-85
2022/11/01 12:01:12;;;;;;;14.98;2.72;;;15.10;99.90;;;;;;4876659;29;20053;-85
2022/11/01 12:03:47;;;;;;;19.88;2.47;;;15.10;99.90;;;;;;4876711;29;20086;-85
2022/11/01 12:06:19;;;;;;;16.92;2.65;;;15.20;99.90;;;;;;4861770;29;20052;-84
2022/11/01 12:08:50;;;;;;;20.30;2.55;;;15.20;99.90;;;;;;4876155;29;20061;-85
2022/11/01 12:11:16;;;;;;;17.50;3.08;;;15.10;99.90;;;;;;4877225;29;20481;-85
2022/11/01 12:13:44;;;;;;;19.75;2.83;;;15.20;99.90;;;;;;4892216;29;20060;-85
2022/11/01 12:16:19;;;;;;;19.25;3.25;;;15.20;99.90;;;;;;4876071;29;20048;-85
2022/11/01 12:18:48;;;;;;;20.17;2.80;;;15.20;99.90;;;;;;4860333;29;20088;-84
2022/11/01 12:21:19;;;;;;;14.20;2.15;;;15.30;99.90;;;;;;4877490;29;20048;-85
2022/11/01 12:23:48;;;;;;;15.50;2.38;;;15.30;99.90;;;;;;4875603;29;20045;-85
2022/11/01 12:26:16;;;;;;;16.88;2.78;;;15.40;99.90;;;;;;4877197;29;20092;-85
2022/11/01 12:28:52;;;;;;;18.63;2.53;;;15.50;99.90;;;;;;4860207;29;20210;-86
2022/11/01 12:31:20;;;;;;;16.83;2.53;;;15.40;99.90;;;;;;4861801;29;20147;-85
2022/11/01 12:33:50;;;;;;;18.73;2.65;;;15.50;99.90;;;;;;4859721;29;20108;-85
2022/11/01 12:36:21;;;;;;;16.08;2.78;;;15.50;99.90;;;;;;4876112;29;20056;-84
2022/11/01 12:38:52;;;;;;;17.95;2.50;;;15.50;99.90;;;;;;4860423;29;20058;-85
2022/11/01 12:41:29;;;;;;;15.80;2.65;;;15.50;99.90;;;;;;4876726;29;20056;-85
2022/11/01 12:44:03;;;;;;;17.63;2.78;;;15.60;99.90;;;;;;4876110;29;20132;-85
2022/11/01 12:46:49;;;;;;;20.80;2.60;;;15.60;99.90;;;;;;4876026;29;20056;-85
2022/11/01 12:49:35;;;;;;;13.48;2.30;;;15.60;99.90;;;;;;4860715;29;20063;-85
2022/11/01 12:52:10;;;;;;;17.67;3.30;;;15.60;99.90;;;;;;4875825;29;20053;-85
2022/11/01 12:54:41;;;;;;;16.95;2.78;;;15.70;99.90;;;;;;4861069;29;20398;-86
2022/11/01 12:57:23;;;;;;;12.15;2.35;;;15.70;99.90;;;;;;4875627;29;20489;-85
2022/11/01 12:59:54;;;;;;;13.25;2.42;;;15.70;99.90;;;;;;4860267;29;20569;-85
2022/11/01 13:02:55;;;;;;;21.75;2.60;;;15.70;99.90;;;;;;4860505;29;20257;-86
2022/11/01 13:05:48;;;;;;;17.45;3.25;;;15.80;99.90;;;;;;4876075;29;20044;-85
2022/11/01 13:08:23;;;;;;;;;;;16.20;99.90;;;;;;4892240;29;20429;-84
2022/11/01 13:10:49;;;;;;;16.73;2.67;;;15.80;99.90;;;;;;4875672;29;20263;-85
2022/11/01 13:13:30;;;;;;;21.92;2.67;;;15.70;99.90;;;;;;4890846;29;20393;-85
2022/11/01 13:16:07;;;;;;;17.90;2.00;;;15.80;99.90;;;;;;4876249;29;20489;-85
2022/11/01 13:18:54;;;;;;;11.85;2.25;;;15.80;99.90;;;;;;4873612;29;20053;-85
2022/11/01 13:21:43;;;;;;;14.63;2.58;;;15.90;99.90;;;;;;4876311;29;20523;-85
2022/11/01 13:24:19;;;;;;;16.70;2.58;;;15.90;99.90;;;;;;4875608;29;20063;-85
2022/11/01 13:26:57;;;;;;;13.55;2.70;;;15.80;99.90;;;;;;4875304;29;20135;-85
2022/11/01 13:29:37;;;;;;;20.67;2.50;;;15.90;99.90;;;;;;4876052;29;20084;-85
2022/11/01 13:32:16;;;;;;;13.70;2.15;;;15.80;99.90;;;;;;4875509;29;20053;-85
2022/11/01 13:34:48;;;;;;;24.17;2.45;;;15.80;99.90;;;;;;4890768;29;20048;-85
2022/11/01 13:37:22;;;;;;;16.88;2.17;;;15.80;99.90;;;;;;4875889;29;20060;-85